createdAt,value
2019-04-30T00:00:01.100Z,24.87
2019-04-30T00:02:38.401Z,24.63
2019-04-30T00:05:01.468Z,26.30
2019-04-30T00:07:30.001Z,25.07
2019-04-30T00:09:58.469Z,24.40
2019-04-30T00:12:30.794Z,26.50
2019-04-30T00:14:57.216Z,25.27
2019-04-30T00:17:25.749Z,22.87
2019-04-30T00:19:55.971Z,24.27
2019-04-30T00:22:31.713Z,25.93
2019-04-30T00:24:55.637Z,24.90
2019-04-30T00:27:26.421Z,26.30
2019-04-30T00:29:55.826Z,25.40
2019-04-30T00:32:25.806Z,25.80
2019-04-30T00:34:55.613Z,26.30
2019-04-30T00:37:25.436Z,26.77
2019-04-30T00:39:55.598Z,25.90
2019-04-30T00:42:28.427Z,25.07
2019-04-30T00:44:55.306Z,26.37
2019-04-30T00:47:25.660Z,26.93
2019-04-30T00:49:57.577Z,24.70
2019-04-30T00:52:25.320Z,23.97
2019-04-30T00:54:55.315Z,24.97
2019-04-30T00:57:26.374Z,24.60
2019-04-30T00:59:54.869Z,27.27
2019-04-30T01:02:35.759Z,25.23
2019-04-30T01:05:19.306Z,24.00
2019-04-30T01:07:51.557Z,23.40
2019-04-30T01:10:19.608Z,23.97
2019-04-30T01:12:50.265Z,24.03
2019-04-30T01:15:19.090Z,20.33
2019-04-30T01:17:50.977Z,26.20
2019-04-30T01:20:19.389Z,23.70
2019-04-30T01:22:48.711Z,21.13
2019-04-30T01:25:18.761Z,22.23
2019-04-30T01:27:49.091Z,22.57
2019-04-30T01:30:22.425Z,21.47
2019-04-30T01:32:51.965Z,23.80
2019-04-30T01:35:19.117Z,22.20
2019-04-30T01:37:48.779Z,22.00
2019-04-30T01:40:19.033Z,22.90
2019-04-30T01:42:50.765Z,21.27
2019-04-30T01:45:18.758Z,24.97
2019-04-30T01:47:49.466Z,20.50
2019-04-30T01:50:19.303Z,20.30
2019-04-30T01:52:53.671Z,24.37
2019-04-30T01:55:25.115Z,24.77
2019-04-30T01:57:59.139Z,23.30
2019-04-30T02:00:29.421Z,20.30
2019-04-30T02:02:59.257Z,21.13
2019-04-30T02:05:28.750Z,22.60
2019-04-30T02:07:58.525Z,21.80
2019-04-30T02:10:28.815Z,22.67
2019-04-30T02:12:58.955Z,21.47
2019-04-30T02:15:29.224Z,24.10
2019-04-30T02:17:58.705Z,21.97
2019-04-30T02:20:28.735Z,20.43
2019-04-30T02:22:58.635Z,22.03
2019-04-30T02:25:29.388Z,22.17
2019-04-30T02:27:59.096Z,20.83
2019-04-30T02:30:30.483Z,22.30
2019-04-30T02:33:00.634Z,21.70
2019-04-30T02:35:29.748Z,24.00
2019-04-30T02:38:14.734Z,25.03
2019-04-30T02:40:43.737Z,23.47
2019-04-30T02:43:12.354Z,23.10
2019-04-30T02:45:42.123Z,21.73
2019-04-30T02:48:11.962Z,21.23
2019-04-30T02:50:42.102Z,25.30
2019-04-30T02:53:46.952Z,23.60
2019-04-30T02:56:15.471Z,22.90
2019-04-30T02:58:44.041Z,25.07
2019-04-30T03:01:12.581Z,23.47
2019-04-30T03:03:42.670Z,24.40
2019-04-30T03:06:12.905Z,22.13
2019-04-30T03:08:41.489Z,21.23
2019-04-30T03:11:11.452Z,22.67
2019-04-30T03:13:42.562Z,21.73
2019-04-30T03:16:11.770Z,24.73
2019-04-30T03:18:50.868Z,22.60
2019-04-30T03:21:40.343Z,22.80
2019-04-30T03:24:10.513Z,22.97
2019-04-30T03:26:40.094Z,23.27
2019-04-30T03:29:11.133Z,24.83
2019-04-30T03:31:44.321Z,22.70
2019-04-30T03:34:16.943Z,23.53
2019-04-30T03:36:40.357Z,25.67
2019-04-30T03:39:10.851Z,23.43
2019-04-30T03:41:41.385Z,21.97
2019-04-30T03:44:20.783Z,23.80
2019-04-30T03:46:40.457Z,21.87
2019-04-30T03:49:10.624Z,22.00
2019-04-30T03:51:40.223Z,23.40
2019-04-30T03:54:09.972Z,23.30
2019-04-30T03:56:40.010Z,25.00
2019-04-30T03:59:10.524Z,23.50
2019-04-30T04:01:43.925Z,23.00
2019-04-30T04:04:19.874Z,23.30
2019-04-30T04:07:04.971Z,23.30
2019-04-30T04:09:41.268Z,23.73
2019-04-30T04:12:26.106Z,23.20
2019-04-30T04:14:54.570Z,24.47
2019-04-30T04:17:23.480Z,21.90
2019-04-30T04:19:51.945Z,23.07
2019-04-30T04:22:21.243Z,22.37
2019-04-30T04:24:50.810Z,26.43
2019-04-30T04:27:19.829Z,23.57
2019-04-30T04:29:51.060Z,21.53
2019-04-30T04:32:23.605Z,23.80
2019-04-30T04:34:50.422Z,24.57
2019-04-30T04:37:20.245Z,23.33
2019-04-30T04:39:50.039Z,24.07
2019-04-30T04:42:19.683Z,27.53
2019-04-30T04:44:50.202Z,24.93
2019-04-30T04:47:20.001Z,25.90
2019-04-30T04:49:53.195Z,25.20
2019-04-30T04:52:21.407Z,25.33
2019-04-30T04:54:50.594Z,24.90
2019-04-30T04:57:22.657Z,24.43
2019-04-30T04:59:50.164Z,25.27
2019-04-30T05:02:32.195Z,24.97
2019-04-30T05:04:59.942Z,25.20
2019-04-30T05:07:28.806Z,25.00
2019-04-30T05:10:00.545Z,27.93
2019-04-30T05:12:29.590Z,26.10
2019-04-30T05:14:59.585Z,25.63
2019-04-30T05:17:29.678Z,23.13
2019-04-30T05:19:58.752Z,26.03
2019-04-30T05:22:29.152Z,24.00
2019-04-30T05:24:58.825Z,23.30
2019-04-30T05:27:27.627Z,24.90
2019-04-30T05:29:56.157Z,25.43
2019-04-30T05:32:24.693Z,27.67
2019-04-30T05:34:53.385Z,28.10
2019-04-30T05:37:22.486Z,26.87
2019-04-30T05:39:51.225Z,25.80
2019-04-30T05:42:19.821Z,25.37
2019-04-30T05:44:49.666Z,25.60
2019-04-30T05:47:19.591Z,26.60
2019-04-30T05:49:49.020Z,27.27
2019-04-30T05:52:19.932Z,25.70
2019-04-30T05:54:48.727Z,28.10
2019-04-30T05:57:19.602Z,24.77
2019-04-30T05:59:48.881Z,24.57
2019-04-30T06:02:19.288Z,26.23
2019-04-30T06:04:49.008Z,27.40
2019-04-30T06:07:18.854Z,28.07
2019-04-30T06:09:52.980Z,28.20
2019-04-30T06:12:26.194Z,26.37
2019-04-30T06:15:02.167Z,26.63
2019-04-30T06:17:32.065Z,27.50
2019-04-30T06:20:00.968Z,30.07
2019-04-30T06:22:29.698Z,28.10
2019-04-30T06:24:59.464Z,27.97
2019-04-30T06:27:29.121Z,31.40
2019-04-30T06:29:58.488Z,26.87
2019-04-30T06:32:27.206Z,28.33
2019-04-30T06:34:55.915Z,27.30
2019-04-30T06:37:24.795Z,29.90
2019-04-30T06:39:54.475Z,29.73
2019-04-30T06:42:23.279Z,28.33
2019-04-30T06:44:52.072Z,28.43
2019-04-30T06:47:32.403Z,27.77
2019-04-30T06:49:51.821Z,29.10
2019-04-30T06:52:23.391Z,28.23
2019-04-30T06:54:50.698Z,27.20
2019-04-30T06:57:19.908Z,27.60
2019-04-30T06:59:51.236Z,26.17
2019-04-30T07:02:19.662Z,27.63
2019-04-30T07:04:49.159Z,27.27
2019-04-30T07:07:22.703Z,31.03
2019-04-30T07:10:02.491Z,26.43
2019-04-30T07:12:34.160Z,28.03
2019-04-30T07:15:03.319Z,28.10
2019-04-30T07:17:31.816Z,29.30
2019-04-30T07:20:00.282Z,27.93
2019-04-30T07:22:37.634Z,31.80
2019-04-30T07:24:59.596Z,28.27
2019-04-30T07:27:31.927Z,26.87
2019-04-30T07:29:59.617Z,27.10
2019-04-30T07:32:28.854Z,28.00
2019-04-30T07:34:59.300Z,27.67
2019-04-30T07:37:29.330Z,27.57
2019-04-30T07:39:58.947Z,28.87
2019-04-30T07:42:29.474Z,30.10
2019-04-30T07:45:00.442Z,30.00
2019-04-30T07:47:29.616Z,30.60
2019-04-30T07:50:00.746Z,29.50
2019-04-30T07:52:33.233Z,29.47
2019-04-30T07:55:00.707Z,27.23
2019-04-30T07:57:29.194Z,28.50
2019-04-30T08:00:00.531Z,29.70
2019-04-30T08:02:36.393Z,29.93
2019-04-30T08:05:02.787Z,28.17
2019-04-30T08:07:31.385Z,29.13
2019-04-30T08:09:59.965Z,28.57
2019-04-30T08:12:33.625Z,31.80
2019-04-30T08:14:59.493Z,28.50
2019-04-30T08:17:28.950Z,29.77
2019-04-30T08:19:58.834Z,29.70
2019-04-30T08:22:29.594Z,30.93
2019-04-30T08:24:58.706Z,29.40
2019-04-30T08:27:29.456Z,28.83
2019-04-30T08:29:59.233Z,28.27
2019-04-30T08:32:29.001Z,32.97
2019-04-30T08:35:01.002Z,31.30
2019-04-30T08:37:28.867Z,32.67
2019-04-30T08:39:59.790Z,36.03
2019-04-30T08:42:31.620Z,33.30
2019-04-30T08:44:58.561Z,33.43
2019-04-30T08:47:29.098Z,35.63
2019-04-30T08:50:01.693Z,34.23
2019-04-30T08:52:27.788Z,31.67
2019-04-30T08:54:56.260Z,28.77
2019-04-30T08:57:24.800Z,31.83
2019-04-30T08:59:53.266Z,30.90
2019-04-30T09:02:21.725Z,32.23
2019-04-30T09:04:51.909Z,32.17
2019-04-30T09:07:20.420Z,35.53
2019-04-30T09:09:49.028Z,34.13
2019-04-30T09:12:19.418Z,33.13
2019-04-30T09:14:49.031Z,36.80
2019-04-30T09:17:19.656Z,33.53
2019-04-30T09:19:49.050Z,32.57
2019-04-30T09:22:19.554Z,32.57
2019-04-30T09:24:49.710Z,33.93
2019-04-30T09:27:19.575Z,30.87
2019-04-30T09:29:49.241Z,30.47
2019-04-30T09:32:19.302Z,30.53
2019-04-30T09:34:48.852Z,33.40
2019-04-30T09:37:18.700Z,31.80
2019-04-30T09:39:49.439Z,30.93
2019-04-30T09:42:19.460Z,32.13
2019-04-30T09:44:49.224Z,31.97
2019-04-30T09:47:19.863Z,31.33
2019-04-30T09:49:49.336Z,31.70
2019-04-30T09:52:19.187Z,32.63
2019-04-30T09:54:49.964Z,30.87
2019-04-30T09:57:19.329Z,31.03
2019-04-30T09:59:48.631Z,31.83
2019-04-30T10:02:19.096Z,31.10
2019-04-30T10:04:48.156Z,30.90
2019-04-30T10:07:17.066Z,32.53
2019-04-30T10:09:45.526Z,29.90
2019-04-30T10:12:15.250Z,30.20
2019-04-30T10:14:43.787Z,29.50
2019-04-30T10:17:13.990Z,30.63
2019-04-30T10:19:42.810Z,29.30
2019-04-30T10:22:11.354Z,28.30
2019-04-30T10:24:40.074Z,28.17
2019-04-30T10:27:13.070Z,28.73
2019-04-30T10:29:39.501Z,27.73
2019-04-30T10:32:09.132Z,26.13
2019-04-30T10:34:37.654Z,28.13
2019-04-30T10:37:06.190Z,26.93
2019-04-30T10:39:34.734Z,24.93
2019-04-30T10:42:03.606Z,25.20
2019-04-30T10:44:32.098Z,25.13
2019-04-30T10:47:00.699Z,24.63
2019-04-30T10:49:29.343Z,24.97
2019-04-30T10:51:59.396Z,25.30
2019-04-30T10:54:28.977Z,24.77
2019-04-30T10:56:59.169Z,23.17
2019-04-30T10:59:27.988Z,22.57
2019-04-30T11:01:56.451Z,23.07
2019-04-30T11:04:24.927Z,22.70
2019-04-30T11:06:53.407Z,24.33
2019-04-30T11:09:22.036Z,22.23
2019-04-30T11:11:50.630Z,23.00
2019-04-30T11:14:19.084Z,22.40
2019-04-30T11:16:51.237Z,23.77
2019-04-30T11:19:19.282Z,22.77
2019-04-30T11:21:48.253Z,23.80
2019-04-30T11:24:17.563Z,23.37
2019-04-30T11:26:49.495Z,21.20
2019-04-30T11:29:17.538Z,22.73
2019-04-30T11:31:48.269Z,22.00
2019-04-30T11:34:16.995Z,22.80
2019-04-30T11:36:45.475Z,22.57
2019-04-30T11:39:15.656Z,20.87
2019-04-30T11:41:44.160Z,22.33
2019-04-30T11:44:12.664Z,22.23
2019-04-30T11:47:02.254Z,21.40
2019-04-30T11:49:30.716Z,21.43
2019-04-30T11:51:59.379Z,21.10
2019-04-30T11:54:29.716Z,21.30
2019-04-30T11:56:58.763Z,20.87
2019-04-30T11:59:29.613Z,23.73
2019-04-30T12:01:59.501Z,22.60
2019-04-30T12:04:29.930Z,22.90
2019-04-30T12:06:59.851Z,21.30
2019-04-30T12:09:48.460Z,22.77
2019-04-30T12:12:18.795Z,21.70
2019-04-30T12:14:47.207Z,19.80
2019-04-30T12:17:15.749Z,20.97
2019-04-30T12:19:44.236Z,21.40
2019-04-30T12:22:12.686Z,21.87
2019-04-30T12:24:41.187Z,21.40
2019-04-30T12:27:09.669Z,23.40
2019-04-30T12:29:39.770Z,21.03
2019-04-30T12:32:08.393Z,19.50
2019-04-30T12:34:36.868Z,18.00
2019-04-30T12:37:05.485Z,17.50
2019-04-30T12:39:33.937Z,16.97
2019-04-30T12:42:02.405Z,17.60
2019-04-30T12:44:30.865Z,18.73
2019-04-30T12:46:59.338Z,17.90
2019-04-30T12:49:29.423Z,18.20
2019-04-30T12:52:11.539Z,17.67
2019-04-30T12:54:41.721Z,21.30
2019-04-30T12:57:14.681Z,18.93
2019-04-30T12:59:43.143Z,18.30
2019-04-30T13:02:11.761Z,20.77
2019-04-30T13:04:40.232Z,18.53
2019-04-30T13:07:10.570Z,19.57
2019-04-30T13:09:40.268Z,16.63
2019-04-30T13:12:10.390Z,18.20
2019-04-30T13:14:51.087Z,24.20
2019-04-30T13:17:09.651Z,68.93
2019-04-30T13:19:38.114Z,32.33
2019-04-30T13:22:06.653Z,19.57
2019-04-30T13:24:35.183Z,19.63
2019-04-30T13:27:03.771Z,18.30
2019-04-30T13:29:39.921Z,19.93
2019-04-30T13:32:08.673Z,19.20
2019-04-30T13:34:44.846Z,19.20
2019-04-30T13:37:21.051Z,18.23
2019-04-30T13:40:00.222Z,19.47
2019-04-30T13:42:33.601Z,19.03
2019-04-30T13:45:08.164Z,21.60
2019-04-30T13:47:36.835Z,20.00
2019-04-30T13:50:06.281Z,21.47
2019-04-30T13:52:34.900Z,18.80
2019-04-30T13:55:04.238Z,18.83
2019-04-30T13:57:34.349Z,20.07
2019-04-30T14:00:04.713Z,20.43
2019-04-30T14:02:34.895Z,19.83
2019-04-30T14:05:05.393Z,20.13
2019-04-30T14:07:44.346Z,18.80
2019-04-30T14:10:12.968Z,20.63
2019-04-30T14:12:43.161Z,20.10
2019-04-30T14:15:12.301Z,19.53
2019-04-30T14:17:40.914Z,20.10
2019-04-30T14:20:10.060Z,19.97
2019-04-30T14:22:40.181Z,20.90
2019-04-30T14:25:08.938Z,22.50
2019-04-30T14:27:48.966Z,23.33
2019-04-30T14:30:09.294Z,21.20
2019-04-30T14:32:40.340Z,22.57
2019-04-30T14:35:10.530Z,21.63
2019-04-30T14:37:39.097Z,21.70
2019-04-30T14:40:12.315Z,22.80
2019-04-30T14:42:40.276Z,20.00
2019-04-30T14:45:18.233Z,19.43
2019-04-30T14:48:05.973Z,18.90
2019-04-30T14:50:38.549Z,20.00
2019-04-30T14:53:24.161Z,23.23
2019-04-30T14:56:09.554Z,24.57
2019-04-30T14:58:44.350Z,20.70
2019-04-30T15:01:19.263Z,19.00
2019-04-30T15:03:51.715Z,18.83
2019-04-30T15:06:24.901Z,20.77
2019-04-30T15:08:53.500Z,19.27
2019-04-30T15:11:22.046Z,19.60
2019-04-30T15:13:52.210Z,19.17
2019-04-30T15:16:21.812Z,19.53
2019-04-30T15:18:57.306Z,20.80
2019-04-30T15:21:29.141Z,19.87
2019-04-30T15:24:01.702Z,19.27
2019-04-30T15:26:29.662Z,19.70
2019-04-30T15:29:00.092Z,19.70
2019-04-30T15:31:29.658Z,19.10
2019-04-30T15:34:11.880Z,18.50
2019-04-30T15:36:43.528Z,20.40
2019-04-30T15:39:13.971Z,20.60
2019-04-30T15:41:42.806Z,18.90
2019-04-30T15:44:14.586Z,20.47
2019-04-30T15:46:43.120Z,17.90
2019-04-30T15:49:11.734Z,18.00
2019-04-30T15:51:40.250Z,17.50
2019-04-30T15:54:08.910Z,19.10
2019-04-30T15:56:40.293Z,18.83
2019-04-30T15:59:28.953Z,18.00
2019-04-30T16:02:02.395Z,19.60
2019-04-30T16:04:44.750Z,18.43
2019-04-30T16:07:13.412Z,19.30
2019-04-30T16:09:59.133Z,16.53
2019-04-30T16:12:41.742Z,19.07
2019-04-30T16:15:10.714Z,19.00
2019-04-30T16:17:40.867Z,18.00
2019-04-30T16:20:09.565Z,18.63
2019-04-30T16:22:39.199Z,19.30
2019-04-30T16:25:08.622Z,18.07
2019-04-30T16:27:37.268Z,17.67
2019-04-30T16:30:06.958Z,18.27
2019-04-30T16:32:35.434Z,18.27
2019-04-30T16:35:05.914Z,18.40
2019-04-30T16:37:34.373Z,16.77
2019-04-30T16:40:02.902Z,17.20
2019-04-30T16:45:14.554Z,18.13
2019-04-30T16:47:43.140Z,17.30
2019-04-30T16:50:25.374Z,17.80
2019-04-30T16:52:54.022Z,17.57
2019-04-30T16:55:23.021Z,16.43
2019-04-30T16:57:51.980Z,16.63
2019-04-30T17:00:22.756Z,16.33
2019-04-30T17:03:03.160Z,17.13
2019-04-30T17:05:36.047Z,16.27
2019-04-30T17:08:06.467Z,15.63
2019-04-30T17:10:36.837Z,14.70
2019-04-30T17:13:19.365Z,16.50
2019-04-30T17:15:49.453Z,15.80
2019-04-30T17:18:19.086Z,16.70
2019-04-30T17:20:49.085Z,16.47
2019-04-30T17:23:19.336Z,16.00
2019-04-30T17:25:48.031Z,15.50
2019-04-30T17:28:18.838Z,16.90
2019-04-30T17:30:49.162Z,14.83
2019-04-30T17:33:20.164Z,17.13
2019-04-30T17:35:49.888Z,15.50
2019-04-30T17:38:18.508Z,15.50
2019-04-30T17:40:49.481Z,14.93
2019-04-30T17:43:17.495Z,16.47
2019-04-30T17:45:46.129Z,14.20
2019-04-30T17:48:14.593Z,15.33
2019-04-30T17:50:43.183Z,15.80
2019-04-30T17:53:11.648Z,14.47
2019-04-30T17:55:40.135Z,14.70
2019-04-30T17:58:09.800Z,13.30
2019-04-30T18:00:40.451Z,12.80
2019-04-30T18:03:10.943Z,13.50
2019-04-30T18:05:39.383Z,12.00
2019-04-30T18:08:08.091Z,12.07
2019-04-30T18:10:36.931Z,13.13
2019-04-30T18:13:05.821Z,13.00
2019-04-30T18:15:34.366Z,11.97
2019-04-30T18:18:10.262Z,11.23
2019-04-30T18:20:56.921Z,11.97
2019-04-30T18:23:27.215Z,10.47
2019-04-30T18:25:59.919Z,11.03
2019-04-30T18:28:29.152Z,11.50
2019-04-30T18:30:59.069Z,10.47
2019-04-30T18:33:29.429Z,10.10
2019-04-30T18:35:59.708Z,10.37
2019-04-30T18:38:29.294Z,11.13
2019-04-30T18:40:59.466Z,10.90
2019-04-30T18:43:28.778Z,11.00
2019-04-30T18:45:57.415Z,11.00
2019-04-30T18:48:29.375Z,9.50
2019-04-30T18:50:56.163Z,11.33
2019-04-30T18:53:28.695Z,10.87
2019-04-30T18:55:59.179Z,10.13
2019-04-30T18:58:39.237Z,10.47
2019-04-30T19:00:59.255Z,9.73
2019-04-30T19:03:29.303Z,10.50
2019-04-30T19:05:59.581Z,10.80
2019-04-30T19:08:29.826Z,12.50
2019-04-30T19:11:05.656Z,12.30
2019-04-30T19:13:50.948Z,10.93
2019-04-30T19:16:39.991Z,11.43
2019-04-30T19:19:09.376Z,11.40
2019-04-30T19:21:40.181Z,10.53
2019-04-30T19:24:08.703Z,11.60
2019-04-30T19:26:38.867Z,10.40
2019-04-30T19:29:08.474Z,9.30
2019-04-30T19:31:39.471Z,10.90
2019-04-30T19:34:09.762Z,11.00
2019-04-30T19:36:40.540Z,9.30
2019-04-30T19:39:09.914Z,10.07
2019-04-30T19:41:38.900Z,10.97
2019-04-30T19:44:07.652Z,10.60
2019-04-30T19:46:36.297Z,11.13
2019-04-30T19:49:05.195Z,11.27
2019-04-30T19:51:34.029Z,11.87
2019-04-30T19:54:02.502Z,11.10
2019-04-30T19:56:32.859Z,12.40
2019-04-30T19:59:05.299Z,12.17
2019-04-30T20:01:31.417Z,11.70
2019-04-30T20:03:59.973Z,11.27
2019-04-30T20:06:28.765Z,12.43
2019-04-30T20:08:58.773Z,12.23
2019-04-30T20:11:27.510Z,11.60
2019-04-30T20:13:55.966Z,11.60
2019-04-30T20:16:24.446Z,11.70
2019-04-30T20:18:52.906Z,11.50
2019-04-30T20:21:27.894Z,11.60
2019-04-30T20:23:53.267Z,11.10
2019-04-30T20:26:23.099Z,11.87
2019-04-30T20:28:51.564Z,11.30
2019-04-30T20:31:20.030Z,11.80
2019-04-30T20:33:53.667Z,12.60
2019-04-30T20:36:22.012Z,11.90
2019-04-30T20:38:54.998Z,13.57
2019-04-30T20:41:25.123Z,14.10
2019-04-30T20:43:53.614Z,14.53
2019-04-30T20:46:34.361Z,13.70
2019-04-30T20:48:54.898Z,13.70
2019-04-30T20:51:23.565Z,15.37
2019-04-30T20:53:52.476Z,15.20
2019-04-30T20:56:20.964Z,16.13
2019-04-30T20:58:57.848Z,16.30
2019-04-30T21:01:20.480Z,16.07
2019-04-30T21:03:50.138Z,16.57
2019-04-30T21:06:19.793Z,18.03
2019-04-30T21:08:48.401Z,16.13
2019-04-30T21:11:16.886Z,17.93
2019-04-30T21:13:46.752Z,18.23
2019-04-30T21:16:15.441Z,17.77
2019-04-30T21:18:44.018Z,17.90
2019-04-30T21:21:12.798Z,17.57
2019-04-30T21:23:41.817Z,19.50
2019-04-30T21:26:10.446Z,20.20
2019-04-30T21:28:39.363Z,20.37
2019-04-30T21:31:25.726Z,20.47
2019-04-30T21:33:58.256Z,22.60
2019-04-30T21:36:28.518Z,21.73
2019-04-30T21:38:58.957Z,22.60
2019-04-30T21:41:30.624Z,22.20
2019-04-30T21:43:59.344Z,21.27
2019-04-30T21:46:29.281Z,23.27
2019-04-30T21:48:58.733Z,22.93
2019-04-30T21:51:29.733Z,23.90
2019-04-30T21:53:59.978Z,24.53
2019-04-30T21:56:28.547Z,24.80
2019-04-30T21:58:57.226Z,24.63
2019-04-30T22:01:25.981Z,24.73
2019-04-30T22:03:54.767Z,24.20
2019-04-30T22:06:24.995Z,24.73
2019-04-30T22:08:58.460Z,24.43
2019-04-30T22:11:29.659Z,25.90
2019-04-30T22:13:58.644Z,25.90
2019-04-30T22:16:29.523Z,25.57
2019-04-30T22:18:57.795Z,26.80
2019-04-30T22:21:28.263Z,28.70
2019-04-30T22:23:57.186Z,27.43
2019-04-30T22:26:25.851Z,27.23
2019-04-30T22:28:54.635Z,28.77
2019-04-30T22:31:23.107Z,28.90
2019-04-30T22:33:51.773Z,27.80
2019-04-30T22:36:29.034Z,28.70
2019-04-30T22:39:09.273Z,30.47
2019-04-30T22:41:39.769Z,29.60
2019-04-30T22:44:08.551Z,31.63
2019-04-30T22:46:39.235Z,29.20
2019-04-30T22:49:07.345Z,29.43
2019-04-30T22:51:35.835Z,28.83
2019-04-30T22:54:04.511Z,30.43
2019-04-30T22:56:33.097Z,31.20
2019-04-30T22:59:01.628Z,28.07
2019-04-30T23:01:44.200Z,30.00
2019-04-30T23:04:20.569Z,31.47
2019-04-30T23:06:49.198Z,31.10
2019-04-30T23:09:18.249Z,31.53
2019-04-30T23:11:46.933Z,30.47
2019-04-30T23:14:15.485Z,28.40
2019-04-30T23:16:44.211Z,30.10
2019-04-30T23:19:12.727Z,28.33
2019-04-30T23:21:41.300Z,29.80
2019-04-30T23:24:26.223Z,31.27
2019-04-30T23:26:50.421Z,32.47
2019-04-30T23:29:25.397Z,32.30
2019-04-30T23:31:54.327Z,32.03
2019-04-30T23:34:43.150Z,31.80
2019-04-30T23:37:16.635Z,30.90
2019-04-30T23:39:44.864Z,32.03
2019-04-30T23:42:17.587Z,30.47
2019-04-30T23:44:46.140Z,31.13
2019-04-30T23:47:14.717Z,32.33
2019-04-30T23:49:46.226Z,30.93
2019-04-30T23:52:16.430Z,32.53
2019-04-30T23:54:46.831Z,33.33
2019-04-30T23:57:15.370Z,34.17
2019-04-30T23:59:43.947Z,32.87
